createdAt,value
2023-02-25T00:01:57.814Z,100.00
2023-02-25T00:04:31.490Z,100.00
2023-02-25T00:06:59.422Z,100.00
2023-02-25T00:09:27.298Z,100.00
2023-02-25T00:11:55.284Z,100.00
2023-02-25T00:14:22.963Z,100.00
2023-02-25T00:16:51.116Z,100.00
2023-02-25T00:19:18.811Z,100.00
2023-02-25T00:21:46.807Z,100.00
2023-02-25T00:24:16.758Z,100.00
2023-02-25T00:26:45.600Z,100.00
2023-02-25T00:29:15.171Z,100.00
2023-02-25T00:31:43.264Z,100.00
2023-02-25T00:34:11.122Z,100.00
2023-02-25T00:36:39.905Z,100.00
2023-02-25T00:39:09.344Z,100.00
2023-02-25T00:41:37.471Z,100.00
2023-02-25T00:44:07.213Z,100.00
2023-02-25T00:46:35.613Z,100.00
2023-02-25T00:49:03.480Z,100.00
2023-02-25T00:51:32.864Z,100.00
2023-02-25T00:54:00.726Z,100.00
2023-02-25T00:56:28.842Z,100.00
2023-02-25T00:58:56.580Z,100.00
2023-02-25T01:01:25.686Z,100.00
2023-02-25T01:03:56.553Z,100.00
2023-02-25T01:06:30.215Z,100.00
2023-02-25T01:08:59.517Z,100.00
2023-02-25T01:11:31.410Z,100.00
2023-02-25T01:14:02.224Z,100.00
2023-02-25T01:16:32.277Z,100.00
2023-02-25T01:19:05.569Z,100.00
2023-02-25T01:21:38.328Z,100.00
2023-02-25T01:24:13.638Z,100.00
2023-02-25T01:26:43.873Z,99.73
2023-02-25T01:29:19.060Z,99.32
2023-02-25T01:31:47.613Z,99.09
2023-02-25T01:34:17.345Z,99.28
2023-02-25T01:36:46.238Z,99.70
2023-02-25T01:39:15.996Z,100.00
2023-02-25T01:41:46.502Z,100.00
2023-02-25T01:44:25.381Z,100.00
2023-02-25T01:46:54.841Z,100.00
2023-02-25T01:49:42.149Z,100.00
2023-02-25T01:52:13.400Z,100.00
2023-02-25T01:54:42.766Z,100.00
2023-02-25T01:57:13.384Z,100.00
2023-02-25T01:59:43.141Z,100.00
2023-02-25T02:02:14.231Z,100.00
2023-02-25T02:04:44.827Z,100.00
2023-02-25T02:07:14.473Z,100.00
2023-02-25T02:09:55.921Z,100.00
2023-02-25T02:12:36.256Z,100.00
2023-02-25T02:15:09.777Z,100.00
2023-02-25T02:17:49.753Z,100.00
2023-02-25T02:20:23.151Z,100.00
2023-02-25T02:23:10.017Z,100.00
2023-02-25T02:25:53.050Z,100.00
2023-02-25T02:28:51.475Z,100.00
2023-02-25T02:31:31.096Z,100.00
2023-02-25T02:34:20.447Z,100.00
2023-02-25T02:37:06.802Z,100.00
2023-02-25T02:39:37.741Z,100.00
2023-02-25T02:42:33.111Z,100.00
2023-02-25T02:45:26.004Z,100.00
2023-02-25T02:48:07.125Z,100.00
2023-02-25T02:50:41.423Z,100.00
2023-02-25T02:53:32.426Z,100.00
2023-02-25T02:56:05.141Z,100.00
2023-02-25T02:58:37.551Z,100.00
2023-02-25T03:01:18.631Z,100.00
2023-02-25T03:04:00.012Z,100.00
2023-02-25T03:06:33.364Z,100.00
2023-02-25T03:09:14.004Z,100.00
2023-02-25T03:11:42.475Z,100.00
2023-02-25T03:14:11.421Z,100.00
2023-02-25T03:16:45.100Z,100.00
2023-02-25T03:19:43.506Z,100.00
2023-02-25T03:22:19.443Z,100.00
2023-02-25T03:24:53.624Z,100.00
2023-02-25T03:27:37.397Z,100.00
2023-02-25T03:30:17.514Z,100.00
2023-02-25T03:32:57.041Z,100.00
2023-02-25T03:35:27.132Z,100.00
2023-02-25T03:38:04.378Z,100.00
2023-02-25T03:40:36.646Z,100.00
2023-02-25T03:43:33.669Z,100.00
2023-02-25T03:46:03.230Z,100.00
2023-02-25T03:48:32.291Z,100.00
2023-02-25T03:51:03.726Z,100.00
2023-02-25T03:53:35.725Z,100.00
2023-02-25T03:56:12.906Z,100.00
2023-02-25T03:58:44.318Z,100.00
2023-02-25T04:01:17.325Z,100.00
2023-02-25T04:03:45.726Z,100.00
2023-02-25T04:06:14.521Z,100.00
2023-02-25T04:08:43.151Z,100.00
2023-02-25T04:11:10.783Z,100.00
2023-02-25T04:13:39.492Z,100.00
2023-02-25T04:16:08.609Z,100.00
2023-02-25T04:18:37.644Z,100.00
2023-02-25T04:21:08.642Z,100.00
2023-02-25T04:23:36.880Z,100.00
2023-02-25T04:26:04.798Z,100.00
2023-02-25T04:28:32.728Z,100.00
2023-02-25T04:31:00.534Z,100.00
2023-02-25T04:33:29.433Z,100.00
2023-02-25T04:35:57.151Z,100.00
2023-02-25T04:38:25.134Z,100.00
2023-02-25T04:40:53.251Z,100.00
2023-02-25T04:43:21.526Z,100.00
2023-02-25T04:45:49.419Z,100.00
2023-02-25T04:48:24.238Z,100.00
2023-02-25T04:50:51.980Z,100.00
2023-02-25T04:53:20.012Z,100.00
2023-02-25T04:55:47.734Z,100.00
2023-02-25T04:58:15.669Z,100.00
2023-02-25T05:00:48.524Z,100.00
2023-02-25T05:03:16.561Z,100.00
2023-02-25T05:05:44.213Z,100.00
2023-02-25T05:08:12.232Z,100.00
2023-02-25T05:10:39.860Z,100.00
2023-02-25T05:13:07.928Z,100.00
2023-02-25T05:15:35.902Z,100.00
2023-02-25T05:18:04.010Z,100.00
2023-02-25T05:20:31.704Z,100.00
2023-02-25T05:22:59.702Z,100.00
2023-02-25T05:25:27.402Z,100.00
2023-02-25T05:27:55.363Z,100.00
2023-02-25T05:30:23.166Z,100.00
2023-02-25T05:32:51.213Z,100.00
2023-02-25T05:35:20.090Z,100.00
2023-02-25T05:37:48.008Z,100.00
2023-02-25T05:40:15.844Z,100.00
2023-02-25T05:42:43.858Z,100.00
2023-02-25T05:45:11.671Z,100.00
2023-02-25T05:47:39.533Z,100.00
2023-02-25T05:50:07.995Z,100.00
2023-02-25T05:52:35.930Z,100.00
2023-02-25T05:55:03.854Z,100.00
2023-02-25T05:57:31.993Z,100.00
2023-02-25T05:59:59.655Z,100.00
2023-02-25T06:02:27.790Z,100.00
2023-02-25T06:04:55.745Z,100.00
2023-02-25T06:07:23.666Z,100.00
2023-02-25T06:09:51.349Z,100.00
2023-02-25T06:12:19.306Z,100.00
2023-02-25T06:14:46.926Z,100.00
2023-02-25T06:17:14.888Z,100.00
2023-02-25T06:19:42.757Z,100.00
2023-02-25T06:22:10.653Z,100.00
2023-02-25T06:24:38.298Z,100.00
2023-02-25T06:27:06.221Z,100.00
2023-02-25T06:29:33.898Z,100.00
2023-02-25T06:32:02.062Z,100.00
2023-02-25T06:34:33.258Z,100.00
2023-02-25T06:37:01.345Z,100.00
2023-02-25T06:39:29.154Z,100.00
2023-02-25T06:41:57.104Z,100.00
2023-02-25T06:44:25.870Z,100.00
2023-02-25T06:46:57.616Z,100.00
2023-02-25T06:49:25.451Z,100.00
2023-02-25T06:51:53.400Z,100.00
2023-02-25T06:54:21.012Z,100.00
2023-02-25T06:56:49.035Z,100.00
2023-02-25T06:59:16.787Z,100.00
2023-02-25T07:01:44.685Z,100.00
2023-02-25T07:04:17.425Z,100.00
2023-02-25T07:06:45.682Z,100.00
2023-02-25T07:09:13.379Z,100.00
2023-02-25T07:11:41.357Z,100.00
2023-02-25T07:14:09.164Z,99.93
2023-02-25T07:16:37.105Z,99.27
2023-02-25T07:19:04.940Z,100.00
2023-02-25T07:21:33.766Z,99.33
2023-02-25T07:24:01.521Z,99.50
2023-02-25T07:26:29.747Z,99.57
2023-02-25T07:28:59.417Z,99.72
2023-02-25T07:31:29.474Z,100.00
2023-02-25T07:34:03.375Z,100.00
2023-02-25T07:36:33.542Z,100.00
2023-02-25T07:39:02.198Z,99.69
2023-02-25T07:41:30.542Z,99.89
2023-02-25T07:44:04.964Z,100.00
2023-02-25T07:46:33.725Z,99.97
2023-02-25T07:49:01.599Z,100.00
2023-02-25T07:51:29.774Z,100.00
2023-02-25T07:53:58.156Z,99.92
2023-02-25T07:56:27.963Z,99.81
2023-02-25T07:58:55.709Z,99.63
2023-02-25T08:01:26.601Z,100.00
2023-02-25T08:03:57.011Z,99.70
2023-02-25T08:06:25.511Z,99.35
2023-02-25T08:08:55.380Z,98.62
2023-02-25T08:11:25.762Z,98.90
2023-02-25T08:13:53.830Z,99.28
2023-02-25T08:16:22.888Z,99.33
2023-02-25T08:18:53.009Z,99.86
2023-02-25T08:21:23.460Z,99.31
2023-02-25T08:23:53.180Z,99.39
2023-02-25T08:26:22.683Z,98.88
2023-02-25T08:28:51.567Z,98.48
2023-02-25T08:31:20.085Z,97.93
2023-02-25T08:33:49.820Z,97.88
2023-02-25T08:36:21.578Z,98.03
2023-02-25T08:38:50.488Z,97.52
2023-02-25T08:41:20.172Z,97.13
2023-02-25T08:43:54.541Z,97.81
2023-02-25T08:46:24.528Z,96.94
2023-02-25T08:48:53.856Z,96.72
2023-02-25T08:51:24.429Z,96.77
2023-02-25T08:53:53.487Z,96.45
2023-02-25T08:56:21.391Z,95.98
2023-02-25T08:58:49.003Z,95.79
2023-02-25T09:01:18.249Z,95.59
2023-02-25T09:03:54.040Z,95.07
2023-02-25T09:06:24.694Z,95.10
2023-02-25T09:08:53.061Z,93.93
2023-02-25T09:11:22.219Z,93.01
2023-02-25T09:13:50.326Z,92.31
2023-02-25T09:16:20.307Z,91.73
2023-02-25T09:18:51.673Z,91.23
2023-02-25T09:21:21.209Z,89.37
2023-02-25T09:23:51.421Z,89.01
2023-02-25T09:26:21.755Z,89.09
2023-02-25T09:28:50.351Z,89.53
2023-02-25T09:31:18.509Z,89.95
2023-02-25T09:33:46.609Z,89.71
2023-02-25T09:36:16.891Z,90.29
2023-02-25T09:38:46.396Z,90.40
2023-02-25T09:41:48.227Z,90.59
2023-02-25T09:44:27.181Z,90.31
2023-02-25T09:46:58.316Z,90.39
2023-02-25T09:49:42.498Z,89.84
2023-02-25T09:52:24.817Z,89.13
2023-02-25T09:55:15.739Z,89.42
2023-02-25T09:57:54.232Z,89.98
2023-02-25T10:00:23.810Z,89.89
2023-02-25T10:03:13.764Z,88.46
2023-02-25T10:06:06.216Z,86.37
2023-02-25T10:08:38.189Z,86.12
2023-02-25T10:11:37.923Z,84.45
2023-02-25T10:14:50.320Z,80.38
2023-02-25T10:17:47.341Z,78.09
2023-02-25T10:20:34.912Z,75.04
2023-02-25T10:23:17.025Z,72.13
2023-02-25T10:26:14.058Z,70.73
2023-02-25T10:28:43.988Z,70.30
2023-02-25T10:31:18.648Z,70.56
2023-02-25T10:33:48.871Z,71.99
2023-02-25T10:36:27.949Z,72.86
2023-02-25T10:38:55.835Z,76.06
2023-02-25T10:41:26.862Z,78.02
2023-02-25T10:43:55.780Z,78.70
2023-02-25T10:46:36.162Z,80.32
2023-02-25T10:49:21.040Z,81.41
2023-02-25T10:52:05.543Z,81.36
2023-02-25T10:54:35.442Z,80.76
2023-02-25T10:57:12.749Z,79.23
2023-02-25T10:59:43.393Z,77.95
2023-02-25T11:02:41.271Z,78.08
2023-02-25T11:05:29.801Z,76.76
2023-02-25T11:07:57.722Z,76.09
2023-02-25T11:10:27.014Z,75.42
2023-02-25T11:12:57.933Z,77.07
2023-02-25T11:15:44.314Z,78.75
2023-02-25T11:18:19.490Z,79.70
2023-02-25T11:20:56.624Z,80.73
2023-02-25T11:23:38.838Z,81.74
2023-02-25T11:26:08.266Z,82.39
2023-02-25T11:28:49.451Z,82.75
2023-02-25T11:31:19.702Z,82.62
2023-02-25T11:34:01.281Z,83.21
2023-02-25T11:36:37.505Z,83.14
2023-02-25T11:39:16.724Z,82.83
2023-02-25T11:41:47.116Z,82.60
2023-02-25T11:44:27.280Z,82.10
2023-02-25T11:47:06.177Z,82.96
2023-02-25T11:49:58.352Z,83.83
2023-02-25T11:52:38.717Z,83.51
2023-02-25T11:55:25.905Z,82.53
2023-02-25T11:58:16.570Z,81.94
2023-02-25T12:00:53.730Z,82.78
2023-02-25T12:03:48.336Z,83.75
2023-02-25T12:06:36.442Z,83.53
2023-02-25T12:09:22.694Z,84.44
2023-02-25T12:12:09.247Z,84.34
2023-02-25T12:15:18.029Z,84.66
2023-02-25T12:18:13.212Z,84.90
2023-02-25T12:20:41.365Z,84.71
2023-02-25T12:23:40.648Z,84.50
2023-02-25T12:26:34.472Z,83.81
2023-02-25T12:29:23.509Z,83.03
2023-02-25T12:32:11.850Z,81.94
2023-02-25T12:35:16.098Z,82.30
2023-02-25T12:37:57.251Z,81.86
2023-02-25T12:40:39.774Z,81.92
2023-02-25T12:43:44.854Z,82.71
2023-02-25T12:46:39.709Z,83.42
2023-02-25T12:49:27.615Z,83.76
2023-02-25T12:52:35.540Z,84.81
2023-02-25T12:55:30.868Z,84.64
2023-02-25T12:58:23.525Z,84.78
2023-02-25T13:01:12.418Z,85.36
2023-02-25T13:03:47.292Z,85.61
2023-02-25T13:06:26.696Z,85.70
2023-02-25T13:09:14.038Z,86.11
2023-02-25T13:12:12.443Z,86.35
2023-02-25T13:14:38.625Z,86.38
2023-02-25T13:17:30.374Z,86.39
2023-02-25T13:20:25.722Z,86.83
2023-02-25T13:22:56.320Z,87.22
2023-02-25T13:25:33.980Z,87.59
2023-02-25T13:28:33.984Z,87.28
2023-02-25T13:31:30.708Z,87.66
2023-02-25T13:34:08.756Z,87.84
2023-02-25T13:36:51.405Z,88.61
2023-02-25T13:39:52.359Z,89.56
2023-02-25T13:42:28.432Z,90.27
2023-02-25T13:45:14.653Z,90.92
2023-02-25T13:48:19.777Z,91.62
2023-02-25T13:51:15.767Z,91.16
2023-02-25T13:53:59.735Z,91.53
2023-02-25T13:57:04.578Z,91.96
2023-02-25T13:59:47.518Z,91.36
2023-02-25T14:02:49.681Z,91.06
2023-02-25T14:05:33.031Z,90.48
2023-02-25T14:08:22.119Z,88.86
2023-02-25T14:11:12.603Z,87.97
2023-02-25T14:13:52.813Z,86.62
2023-02-25T14:16:20.958Z,86.43
2023-02-25T14:19:05.331Z,85.97
2023-02-25T14:21:55.281Z,85.71
2023-02-25T14:24:46.501Z,85.41
2023-02-25T14:27:26.426Z,85.59
2023-02-25T14:30:21.119Z,86.02
2023-02-25T14:33:05.239Z,86.14
2023-02-25T14:35:55.958Z,85.45
2023-02-25T14:38:37.731Z,85.93
2023-02-25T14:41:42.545Z,85.77
2023-02-25T14:44:19.184Z,86.64
2023-02-25T14:47:01.226Z,87.10
2023-02-25T14:50:00.362Z,87.81
2023-02-25T14:52:30.720Z,88.21
2023-02-25T14:55:36.073Z,88.26
2023-02-25T14:58:39.484Z,88.41
2023-02-25T15:01:13.137Z,88.34
2023-02-25T15:04:02.239Z,88.84
2023-02-25T15:06:46.144Z,90.05
2023-02-25T15:10:00.517Z,90.27
2023-02-25T15:12:56.472Z,91.79
2023-02-25T15:16:13.717Z,93.06
2023-02-25T15:19:08.066Z,93.61
2023-02-25T15:21:37.309Z,94.82
2023-02-25T15:24:11.685Z,95.43
2023-02-25T15:26:48.562Z,96.33
2023-02-25T15:29:39.969Z,97.24
2023-02-25T15:32:30.052Z,97.41
2023-02-25T15:35:02.762Z,97.57
2023-02-25T15:37:36.364Z,98.12
2023-02-25T15:40:16.475Z,97.34
2023-02-25T15:42:54.234Z,96.67
2023-02-25T15:45:28.562Z,96.22
2023-02-25T15:48:09.116Z,95.84
2023-02-25T15:50:43.690Z,96.74
2023-02-25T15:53:26.619Z,96.66
2023-02-25T15:56:15.363Z,97.77
2023-02-25T15:58:44.061Z,98.02
2023-02-25T16:01:28.632Z,98.91
2023-02-25T16:03:56.655Z,99.46
2023-02-25T16:06:39.047Z,100.00
2023-02-25T16:09:21.439Z,100.00
2023-02-25T16:11:56.143Z,100.00
2023-02-25T16:14:31.334Z,100.00
2023-02-25T16:17:34.384Z,100.00
2023-02-25T16:20:32.629Z,100.00
2023-02-25T16:23:01.326Z,100.00
2023-02-25T16:26:02.978Z,100.00
2023-02-25T16:28:44.425Z,100.00
2023-02-25T16:31:24.565Z,100.00
2023-02-25T16:34:22.845Z,100.00
2023-02-25T16:36:56.285Z,100.00
2023-02-25T16:39:27.914Z,100.00
2023-02-25T16:41:55.884Z,100.00
2023-02-25T16:44:33.048Z,100.00
2023-02-25T16:47:01.266Z,100.00
2023-02-25T16:49:39.807Z,100.00
2023-02-25T16:52:15.778Z,100.00
2023-02-25T16:54:46.787Z,100.00
2023-02-25T16:57:21.997Z,100.00
2023-02-25T16:59:51.868Z,100.00
2023-02-25T17:02:21.900Z,100.00
2023-02-25T17:04:59.016Z,100.00
2023-02-25T17:07:28.160Z,100.00
2023-02-25T17:10:01.974Z,100.00
2023-02-25T17:12:36.922Z,100.00
2023-02-25T17:15:17.828Z,100.00
2023-02-25T17:17:46.500Z,100.00
2023-02-25T17:20:27.670Z,100.00
2023-02-25T17:22:58.426Z,100.00
2023-02-25T17:25:36.500Z,100.00
2023-02-25T17:28:05.893Z,100.00
2023-02-25T17:30:47.368Z,100.00
2023-02-25T17:33:25.811Z,100.00
2023-02-25T17:36:17.812Z,100.00
2023-02-25T17:38:46.736Z,100.00
2023-02-25T17:41:21.546Z,100.00
2023-02-25T17:43:49.474Z,100.00
2023-02-25T17:46:24.663Z,100.00
2023-02-25T17:48:59.770Z,100.00
2023-02-25T17:51:33.896Z,100.00
2023-02-25T17:54:06.311Z,100.00
2023-02-25T17:56:36.118Z,100.00
2023-02-25T17:59:07.862Z,100.00
2023-02-25T18:01:45.311Z,100.00
2023-02-25T18:04:31.474Z,100.00
2023-02-25T18:07:18.884Z,100.00
2023-02-25T18:09:46.581Z,100.00
2023-02-25T18:12:27.872Z,100.00
2023-02-25T18:15:02.391Z,100.00
2023-02-25T18:17:36.569Z,100.00
2023-02-25T18:20:08.673Z,100.00
2023-02-25T18:22:48.251Z,100.00
2023-02-25T18:25:43.751Z,100.00
2023-02-25T18:28:18.289Z,100.00
2023-02-25T18:30:46.404Z,100.00
2023-02-25T18:33:15.577Z,100.00
2023-02-25T18:35:46.564Z,100.00
2023-02-25T18:38:23.270Z,100.00
2023-02-25T18:40:52.698Z,100.00
2023-02-25T18:43:24.295Z,100.00
2023-02-25T18:45:52.262Z,100.00
2023-02-25T18:48:20.344Z,100.00
2023-02-25T18:50:48.095Z,100.00
2023-02-25T18:53:20.252Z,100.00
2023-02-25T18:55:48.028Z,100.00
2023-02-25T18:58:18.493Z,100.00
2023-02-25T19:00:49.730Z,100.00
2023-02-25T19:03:39.012Z,100.00
2023-02-25T19:06:07.114Z,100.00
2023-02-25T19:08:35.093Z,100.00
2023-02-25T19:11:04.292Z,100.00
2023-02-25T19:13:42.336Z,100.00
2023-02-25T19:16:10.450Z,100.00
2023-02-25T19:18:39.518Z,100.00
2023-02-25T19:21:11.731Z,100.00
2023-02-25T19:23:39.835Z,100.00
2023-02-25T19:26:07.646Z,100.00
2023-02-25T19:28:35.779Z,100.00
2023-02-25T19:31:05.918Z,100.00
2023-02-25T19:33:35.221Z,100.00
2023-02-25T19:36:04.684Z,100.00
2023-02-25T19:38:32.868Z,100.00
2023-02-25T19:41:06.121Z,100.00
2023-02-25T19:43:34.804Z,100.00
2023-02-25T19:46:02.771Z,100.00
2023-02-25T19:48:30.726Z,100.00
2023-02-25T19:50:58.575Z,100.00
2023-02-25T19:53:26.918Z,100.00
2023-02-25T19:55:57.443Z,100.00
2023-02-25T19:58:25.579Z,100.00
2023-02-25T20:00:53.219Z,100.00
2023-02-25T20:03:21.277Z,100.00
2023-02-25T20:05:49.093Z,100.00
2023-02-25T20:08:17.220Z,100.00
2023-02-25T20:10:45.028Z,100.00
2023-02-25T20:13:13.110Z,100.00
2023-02-25T20:15:40.818Z,100.00
2023-02-25T20:18:08.793Z,100.00
2023-02-25T20:20:37.080Z,100.00
2023-02-25T20:23:05.275Z,100.00
2023-02-25T20:25:33.051Z,100.00
2023-02-25T20:28:01.304Z,100.00
2023-02-25T20:30:28.994Z,100.00
2023-02-25T20:32:57.283Z,100.00
2023-02-25T20:35:26.313Z,100.00
2023-02-25T20:38:18.186Z,100.00
2023-02-25T20:40:46.105Z,100.00
2023-02-25T20:43:15.183Z,100.00
2023-02-25T20:45:43.852Z,100.00
2023-02-25T20:48:32.717Z,100.00
2023-02-25T20:51:00.647Z,100.00
2023-02-25T20:53:28.811Z,100.00
2023-02-25T20:55:58.168Z,100.00
2023-02-25T20:58:26.153Z,100.00
2023-02-25T21:00:53.903Z,100.00
2023-02-25T21:03:21.919Z,100.00
2023-02-25T21:05:49.654Z,100.00
2023-02-25T21:08:17.689Z,100.00
2023-02-25T21:10:45.309Z,100.00
2023-02-25T21:13:15.613Z,100.00
2023-02-25T21:15:44.000Z,100.00
2023-02-25T21:18:11.987Z,100.00
2023-02-25T21:20:39.772Z,100.00
2023-02-25T21:23:09.838Z,100.00
2023-02-25T21:25:38.705Z,100.00
2023-02-25T21:28:06.824Z,100.00
2023-02-25T21:30:34.819Z,100.00
2023-02-25T21:33:02.963Z,100.00
2023-02-25T21:35:30.976Z,100.00
2023-02-25T21:37:59.027Z,100.00
2023-02-25T21:40:27.201Z,100.00
2023-02-25T21:42:55.642Z,100.00
2023-02-25T21:45:23.405Z,100.00
2023-02-25T21:47:51.377Z,100.00
2023-02-25T21:50:19.175Z,100.00
2023-02-25T21:52:47.150Z,100.00
2023-02-25T21:55:15.461Z,100.00
2023-02-25T21:57:43.692Z,100.00
2023-02-25T22:00:13.530Z,100.00
2023-02-25T22:02:41.646Z,100.00
2023-02-25T22:05:10.207Z,100.00
2023-02-25T22:07:38.188Z,100.00
2023-02-25T22:10:08.912Z,100.00
2023-02-25T22:12:37.107Z,100.00
2023-02-25T22:15:05.811Z,100.00
2023-02-25T22:17:34.095Z,100.00
2023-02-25T22:20:02.642Z,100.00
2023-02-25T22:22:30.698Z,100.00
2023-02-25T22:24:58.562Z,100.00
2023-02-25T22:27:26.503Z,100.00
2023-02-25T22:29:54.287Z,100.00
2023-02-25T22:32:22.443Z,100.00
2023-02-25T22:34:50.177Z,100.00
2023-02-25T22:37:18.183Z,100.00
2023-02-25T22:42:00.887Z,100.00
2023-02-25T22:44:28.996Z,100.00
2023-02-25T22:46:56.784Z,100.00
2023-02-25T22:49:24.800Z,100.00
2023-02-25T22:51:52.830Z,100.00
2023-02-25T22:54:21.292Z,100.00
2023-02-25T22:56:49.872Z,100.00
2023-02-25T22:59:17.994Z,100.00
2023-02-25T23:01:45.916Z,100.00
2023-02-25T23:04:14.021Z,100.00
2023-02-25T23:06:44.347Z,100.00
2023-02-25T23:09:15.764Z,100.00
2023-02-25T23:11:44.393Z,100.00
2023-02-25T23:14:12.697Z,100.00
2023-02-25T23:16:43.460Z,100.00
2023-02-25T23:19:16.157Z,100.00
2023-02-25T23:21:44.320Z,100.00
2023-02-25T23:24:18.631Z,100.00
2023-02-25T23:26:49.116Z,100.00
2023-02-25T23:29:17.140Z,100.00
2023-02-25T23:31:47.641Z,100.00
2023-02-25T23:34:23.169Z,100.00
2023-02-25T23:36:54.807Z,100.00
2023-02-25T23:39:23.423Z,100.00
2023-02-25T23:41:51.142Z,99.90
2023-02-25T23:44:19.257Z,99.85
2023-02-25T23:46:47.517Z,99.68
2023-02-25T23:49:17.796Z,99.04
2023-02-25T23:51:47.427Z,99.20
2023-02-25T23:54:18.407Z,98.82
2023-02-25T23:56:47.012Z,98.83
2023-02-25T23:59:15.493Z,98.74
